Time;durP1;ratioP1;P1;durP2;ratioP2;P2;SDS_P1;SDS_P2;PMS_P1;PMS_P2;Temp;Humidity;BMP_temperature;BMP_pressure;BME280_temperature;BME280_humidity;BME280_pressure;Samples;Min_cycle;Max_cycle;Signal;HPM_P1;HPM_P2
2022/12/21 00:03:36;;;;;;;;;;;;;;;3.57;86.78;100149.32;2770390;84;20187;-95
2022/12/21 00:07:37;;;;;;;;;;;;;;;3.53;85.95;100134.16;2772629;84;20125;-96
2022/12/21 00:11:38;;;;;;;;;;;;;;;3.46;85.79;100134.61;2797293;84;20145;-96
2022/12/21 00:15:39;;;;;;;;;;;;;;;3.38;86.17;100144.23;2788006;84;20119;-93
2022/12/21 00:19:40;;;;;;;;;;;;;;;3.38;85.96;100163.95;2763967;84;20131;-94
2022/12/21 00:23:43;;;;;;;;;;;;;;;3.37;86.26;100168.83;2759015;83;20175;-94
2022/12/21 00:27:44;;;;;;;;;;;;;;;3.29;86.95;100170.06;2775750;84;20498;-96
2022/12/21 00:31:45;;;;;;;;;;;;;;;3.24;86.88;100153.70;2799431;84;20139;-94
2022/12/21 00:35:50;;;;;;;;;;;;;;;3.27;87.05;100140.87;2760311;84;20133;-95
2022/12/21 00:39:51;;;;;;;;;;;;;;;3.33;87.01;100156.75;2771396;84;20131;-94
2022/12/21 00:43:53;;;;;;;;;;;;;;;3.24;87.92;100165.53;2749266;84;20139;-95
2022/12/21 00:47:54;;;;;;;;;;;;;;;3.30;87.44;100168.30;2781275;84;20167;-96
2022/12/21 00:51:55;;;;;;;;;;;;;;;3.25;87.75;100155.87;2804225;83;20711;-94
2022/12/21 00:55:57;;;;;;;;;;;;;;;3.39;87.37;100140.66;2746601;84;20161;-95
2022/12/21 00:59:58;;;;;;;;;;;;;;;3.42;87.17;100156.27;2776984;84;20131;-93
2022/12/21 01:04:00;;;;;;;;;;;;;;;3.51;86.80;100168.91;2756448;84;20680;-94
2022/12/21 01:08:01;;;;;;;;;;;;;;;3.64;86.27;100168.25;2762927;84;20150;-94
2022/12/21 01:12:02;;;;;;;;;;;;;;;3.61;85.81;100142.12;2797514;84;20139;-94
2022/12/21 01:16:05;;;;;;;;;;;;;;;3.60;86.01;100125.95;2807717;84;20218;-94
2022/12/21 01:20:07;;;;;;;;;;;;;;;3.62;86.00;100128.03;2744535;84;20167;-95
2022/12/21 01:24:11;;;;;;;;;;;;;;;3.63;86.29;100110.00;2800719;84;20165;-95
2022/12/21 01:28:13;;;;;;;;;;;;;;;3.62;86.70;100122.77;2772545;83;20143;-94
2022/12/21 01:32:14;;;;;;;;;;;;;;;3.66;86.08;100120.34;2773709;84;20108;-95
2022/12/21 01:36:17;;;;;;;;;;;;;;;3.65;85.67;100110.75;2776031;84;31099;-95
2022/12/21 01:40:18;;;;;;;;;;;;;;;3.66;85.96;100108.50;2774673;84;20115;-95
2022/12/21 01:44:57;;;;;;;;;;;;;;;3.68;86.03;100117.16;2778107;84;20128;-94
2022/12/21 01:49:01;;;;;;;;;;;;;;;3.72;85.73;100123.94;2782361;84;20155;-95
2022/12/21 01:53:06;;;;;;;;;;;;;;;3.73;85.32;100120.85;2750399;84;20173;-94
2022/12/21 01:57:09;;;;;;;;;;;;;;;3.75;85.36;100133.45;2766733;84;20118;-94
2022/12/21 02:01:10;;;;;;;;;;;;;;;3.67;85.71;100128.16;2770310;84;20155;-93
2022/12/21 02:05:18;;;;;;;;;;;;;;;3.71;85.18;100127.50;2804591;84;20116;-96
2022/12/21 02:09:20;;;;;;;;;;;;;;;3.68;84.91;100119.78;2782307;84;20255;-96
2022/12/21 02:13:21;;;;;;;;;;;;;;;3.65;84.86;100120.83;2782815;84;20482;-96
2022/12/21 02:17:28;;;;;;;;;;;;;;;3.60;85.20;100124.16;2773445;83;20197;-96
2022/12/21 02:21:33;;;;;;;;;;;;;;;3.67;85.20;100120.27;2778946;84;20137;-96
2022/12/21 02:25:56;;;;;;;;;;;;;;;3.58;85.38;100111.56;2759529;83;20143;-95
2022/12/21 02:30:16;;;;;;;;;;;;;;;3.53;85.38;100108.34;2769259;84;20135;-96
2022/12/21 02:34:30;;;;;;;;;;;;;;;3.62;85.00;100107.81;2788116;84;20234;-95
2022/12/21 02:38:34;;;;;;;;;;;;;;;3.70;85.12;100104.77;2797464;83;20137;-96
2022/12/21 02:47:17;;;;;;;;;;;;;;;3.77;85.32;100103.95;2776934;84;20119;-95
2022/12/21 02:51:22;;;;;;;;;;;;;;;3.83;84.83;100100.52;2802517;84;20130;-95
2022/12/21 02:55:25;;;;;;;;;;;;;;;3.90;84.71;100102.79;2764369;83;20112;-95
2022/12/21 02:59:29;;;;;;;;;;;;;;;3.95;84.68;100095.02;2791494;84;20468;-94
2022/12/21 03:04:04;;;;;;;;;;;;;;;4.02;84.28;100089.39;2752354;84;20147;-95
2022/12/21 03:08:32;;;;;;;;;;;;;;;4.05;84.46;100090.06;2783250;84;20396;-94
2022/12/21 03:12:56;;;;;;;;;;;;;;;4.13;84.34;100095.76;2782237;84;20107;-96
2022/12/21 03:17:01;;;;;;;;;;;;;;;4.07;84.48;100072.88;2750472;84;20141;-95
2022/12/21 03:21:08;;;;;;;;;;;;;;;4.11;84.12;100080.48;2773338;84;20123;-94
2022/12/21 03:25:13;;;;;;;;;;;;;;;4.08;83.83;100070.63;2774744;83;20442;-95
2022/12/21 03:29:17;;;;;;;;;;;;;;;4.15;83.41;100062.73;2808012;84;20127;-96
2022/12/21 03:33:20;;;;;;;;;;;;;;;4.16;83.35;100056.53;2802314;84;20109;-94
2022/12/21 03:37:28;;;;;;;;;;;;;;;4.17;83.12;100053.45;2766839;83;20088;-95
2022/12/21 03:41:32;;;;;;;;;;;;;;;4.12;83.02;100062.44;2763122;84;20141;-96
2022/12/21 03:45:39;;;;;;;;;;;;;;;4.17;82.99;100075.83;2770092;84;20152;-94
2022/12/21 03:49:53;;;;;;;;;;;;;;;4.16;83.18;100079.40;2784190;84;20116;-93
2022/12/21 03:53:58;;;;;;;;;;;;;;;4.16;82.55;100077.59;2769976;84;20130;-94
2022/12/21 03:57:59;;;;;;;;;;;;;;;4.12;82.18;100072.97;2741146;84;20616;-93
2022/12/21 04:02:05;;;;;;;;;;;;;;;4.08;82.25;100064.88;2752037;84;20131;-96
2022/12/21 04:06:09;;;;;;;;;;;;;;;4.02;82.81;100077.55;2708622;87;20131;-94
2022/12/21 04:10:13;;;;;;;;;;;;;;;3.99;82.97;100066.26;2709093;87;20155;-95
2022/12/21 04:14:15;;;;;;;;;;;;;;;3.98;83.15;100071.63;2708220;86;20107;-92
2022/12/21 04:19:57;;;;;;;;;;;;;;;3.93;83.21;100068.39;2708997;87;20141;-89
2022/12/21 04:30:59;;;;;;;;;;;;;;;3.93;83.62;100026.28;2709376;87;20148;-91
2022/12/21 04:35:00;;;;;;;;;;;;;;;4.00;83.47;100021.06;2686288;86;20112;-92
2022/12/21 04:39:01;;;;;;;;;;;;;;;3.88;84.25;100012.56;2707895;86;20143;-93
2022/12/21 04:43:03;;;;;;;;;;;;;;;3.89;84.48;100007.67;2718489;86;20141;-93
2022/12/21 04:47:04;;;;;;;;;;;;;;;3.90;83.81;100011.55;2710300;86;20135;-91
2022/12/21 04:51:12;;;;;;;;;;;;;;;3.92;83.84;100028.54;2693848;86;20114;-95
2022/12/21 04:55:13;;;;;;;;;;;;;;;3.88;83.93;100028.34;2712627;87;20183;-93
2022/12/21 04:59:14;;;;;;;;;;;;;;;3.97;84.10;100031.77;2712249;87;20439;-93
2022/12/21 05:03:15;;;;;;;;;;;;;;;3.99;83.67;100025.46;2708899;86;20415;-91
2022/12/21 05:07:17;;;;;;;;;;;;;;;3.96;83.62;100024.33;2708464;87;20112;-92
2022/12/21 05:11:21;;;;;;;;;;;;;;;4.03;83.00;100016.92;2709591;86;20144;-95
2022/12/21 05:15:22;;;;;;;;;;;;;;;3.97;83.77;100011.55;2709877;87;20411;-93
2022/12/21 05:19:23;;;;;;;;;;;;;;;3.95;83.95;100006.84;2709993;87;20116;-92
2022/12/21 05:23:24;;;;;;;;;;;;;;;3.96;83.98;100003.77;2690104;87;20123;-92
2022/12/21 05:27:25;;;;;;;;;;;;;;;3.97;83.67;99995.76;2718900;86;20119;-91
2022/12/21 05:31:26;;;;;;;;;;;;;;;4.06;83.44;99981.69;2706561;86;20148;-92
2022/12/21 05:35:27;;;;;;;;;;;;;;;4.01;83.28;99985.91;2703929;86;20612;-91
2022/12/21 05:39:28;;;;;;;;;;;;;;;4.05;82.94;99991.36;2706734;86;20148;-92
2022/12/21 05:43:30;;;;;;;;;;;;;;;4.08;82.95;99992.48;2689217;86;20124;-91
2022/12/21 05:47:31;;;;;;;;;;;;;;;4.08;83.08;99995.61;2709541;86;20112;-92
2022/12/21 05:51:32;;;;;;;;;;;;;;;4.12;82.71;99999.26;2705331;86;20104;-91
2022/12/21 05:55:33;;;;;;;;;;;;;;;4.05;83.03;99997.94;2705624;86;20141;-91
2022/12/21 05:59:34;;;;;;;;;;;;;;;4.05;83.29;99995.30;2704956;86;20145;-92
2022/12/21 06:03:35;;;;;;;;;;;;;;;4.16;82.99;99992.52;2673371;86;20725;-90
2022/12/21 06:07:36;;;;;;;;;;;;;;;4.19;83.28;99987.06;2665747;88;20146;-92
2022/12/21 06:11:37;;;;;;;;;;;;;;;4.15;83.28;99979.81;2666828;88;20511;-91
2022/12/21 06:15:38;;;;;;;;;;;;;;;4.20;83.55;99976.91;2642590;87;20172;-93
2022/12/21 06:19:39;;;;;;;;;;;;;;;4.21;83.43;99980.75;2689770;88;20112;-92
2022/12/21 06:23:40;;;;;;;;;;;;;;;4.27;83.43;99987.44;2689568;88;20128;-91
2022/12/21 06:27:41;;;;;;;;;;;;;;;4.28;83.64;99986.05;2688969;88;20159;-91
2022/12/21 06:31:42;;;;;;;;;;;;;;;4.34;83.42;99980.02;2689422;88;20176;-91
2022/12/21 06:35:43;;;;;;;;;;;;;;;4.35;83.34;99975.98;2690756;88;20187;-91
2022/12/21 06:39:44;;;;;;;;;;;;;;;4.45;83.13;99975.41;2680314;88;20161;-91
2022/12/21 06:43:46;;;;;;;;;;;;;;;4.48;83.05;99989.25;2683045;88;20152;-92
2022/12/21 06:47:47;;;;;;;;;;;;;;;4.47;83.26;100001.19;2686003;88;20112;-91
2022/12/21 06:51:48;;;;;;;;;;;;;;;4.48;82.98;99989.25;2688735;88;20120;-92
2022/12/21 06:55:50;;;;;;;;;;;;;;;4.53;83.02;99989.80;2682571;88;20120;-91
2022/12/21 06:59:51;;;;;;;;;;;;;;;4.54;82.79;99990.18;2689250;88;20180;-92
2022/12/21 07:03:52;;;;;;;;;;;;;;;4.54;83.23;99997.25;2654911;87;20423;-91
2022/12/21 07:07:53;;;;;;;;;;;;;;;4.57;83.40;99993.94;2662702;86;20510;-91
2022/12/21 07:11:54;;;;;;;;;;;;;;;4.57;83.54;99991.79;2695988;86;20150;-91
2022/12/21 07:15:56;;;;;;;;;;;;;;;4.57;83.59;99995.74;2696152;88;20143;-92
2022/12/21 07:19:57;;;;;;;;;;;;;;;4.64;84.16;100001.48;2713588;86;20133;-92
2022/12/21 07:23:58;;;;;;;;;;;;;;;4.66;83.80;100010.97;2700708;86;20136;-92
2022/12/21 07:27:59;;;;;;;;;;;;;;;4.71;84.10;100003.62;2677213;87;20151;-93
2022/12/21 07:32:01;;;;;;;;;;;;;;;4.76;83.94;100009.09;2697124;87;20131;-92
2022/12/21 07:36:03;;;;;;;;;;;;;;;4.80;83.72;100011.91;2670882;88;20468;-91
2022/12/21 07:40:06;;;;;;;;;;;;;;;4.84;83.85;100008.14;2697865;87;20104;-92
2022/12/21 07:44:07;;;;;;;;;;;;;;;4.77;83.58;100003.72;2697495;88;20112;-91
2022/12/21 07:48:08;;;;;;;;;;;;;;;4.79;84.30;99998.36;2680186;87;20128;-91
2022/12/21 07:52:09;;;;;;;;;;;;;;;4.78;84.58;100005.41;2695399;86;20124;-91
2022/12/21 07:56:13;;;;;;;;;;;;;;;4.81;84.76;100005.70;2696487;88;20136;-91
2022/12/21 08:00:15;;;;;;;;;;;;;;;4.82;85.07;100015.30;2703649;86;20156;-90
2022/12/21 08:04:16;;;;;;;;;;;;;;;4.83;84.81;100010.40;2696195;87;20229;-91
2022/12/21 08:08:17;;;;;;;;;;;;;;;4.90;85.30;100024.88;2699329;87;20389;-91
2022/12/21 08:12:19;;;;;;;;;;;;;;;4.97;85.35;100010.84;2696226;86;20135;-91
2022/12/21 08:16:20;;;;;;;;;;;;;;;4.97;85.69;100014.80;2699596;87;20112;-90
2022/12/21 08:20:21;;;;;;;;;;;;;;;5.04;85.74;100011.31;2678681;88;20124;-90
2022/12/21 08:24:22;;;;;;;;;;;;;;;5.06;85.80;100013.37;2696154;88;20192;-91
2022/12/21 08:28:23;;;;;;;;;;;;;;;5.07;85.76;100010.66;2698528;87;20112;-90
2022/12/21 08:32:24;;;;;;;;;;;;;;;5.03;86.04;100006.53;2697642;86;20151;-90
2022/12/21 08:36:25;;;;;;;;;;;;;;;5.05;85.61;100013.00;2702965;86;20156;-91
2022/12/21 08:40:26;;;;;;;;;;;;;;;5.15;85.42;100008.85;2700206;86;20344;-90
2022/12/21 08:44:27;;;;;;;;;;;;;;;5.10;85.57;99999.91;2672106;88;20116;-91
2022/12/21 08:48:29;;;;;;;;;;;;;;;5.12;85.38;100013.01;2699085;87;20410;-91
2022/12/21 08:52:30;;;;;;;;;;;;;;;5.19;85.46;100001.11;2704269;87;20156;-91
2022/12/21 08:56:31;;;;;;;;;;;;;;;5.16;85.22;100014.50;2673047;88;20180;-90
2022/12/21 09:00:32;;;;;;;;;;;;;;;5.21;85.00;100012.86;2698537;86;20119;-91
2022/12/21 09:04:33;;;;;;;;;;;;;;;5.25;85.43;100008.62;2697701;88;20156;-91
2022/12/21 09:08:36;;;;;;;;;;;;;;;5.20;85.42;100010.72;2697948;86;20352;-91
2022/12/21 09:12:37;;;;;;;;;;;;;;;5.35;85.01;100013.33;2698608;86;20423;-91
2022/12/21 09:16:38;;;;;;;;;;;;;;;5.42;84.30;100011.97;2697292;87;20517;-91
2022/12/21 09:20:39;;;;;;;;;;;;;;;5.40;84.03;100002.00;2698510;88;20183;-91
2022/12/21 09:24:40;;;;;;;;;;;;;;;5.44;83.96;100003.48;2698225;88;20120;-91
2022/12/21 09:28:41;;;;;;;;;;;;;;;5.45;84.44;100006.48;2697832;87;20580;-91
2022/12/21 09:32:42;;;;;;;;;;;;;;;5.39;84.72;99991.90;2675098;87;20186;-91
2022/12/21 09:36:44;;;;;;;;;;;;;;;5.45;85.14;99984.55;2699521;86;20225;-91
2022/12/21 09:40:45;;;;;;;;;;;;;;;5.51;85.83;99979.73;2730603;85;20135;-91
2022/12/21 09:45:24;;;;;;;;;;;;;;;5.56;86.93;99991.27;2732976;87;20134;-91
2022/12/21 09:49:31;;;;;;;;;;;;;;;5.56;87.00;99980.72;2727755;86;20154;-92
2022/12/21 09:53:44;;;;;;;;;;;;;;;5.67;88.08;99980.88;2727048;86;20110;-90
2022/12/21 09:57:49;;;;;;;;;;;;;;;5.69;88.49;99993.48;2733489;86;20118;-91
2022/12/21 10:01:57;;;;;;;;;;;;;;;5.67;88.56;99993.20;2733797;87;20125;-91
2022/12/21 10:06:14;;;;;;;;;;;;;;;5.60;89.21;99997.20;2722182;87;20134;-90
2022/12/21 10:10:23;;;;;;;;;;;;;;;5.45;89.57;99997.26;2707348;87;20409;-91
2022/12/21 10:14:34;;;;;;;;;;;;;;;5.46;90.91;99995.48;2734444;86;20177;-91
2022/12/21 10:18:58;;;;;;;;;;;;;;;5.47;91.29;99999.31;2735024;87;20150;-91
2022/12/21 10:23:05;;;;;;;;;;;;;;;5.42;92.44;99998.32;2736833;86;20568;-91
2022/12/21 10:27:26;;;;;;;;;;;;;;;5.41;93.02;99986.54;2726457;86;20441;-90
2022/12/21 10:31:33;;;;;;;;;;;;;;;5.42;92.79;99980.31;2715980;87;20544;-91
2022/12/21 10:35:38;;;;;;;;;;;;;;;5.37;92.44;99978.45;2702424;86;20147;-90
2022/12/21 10:39:40;;;;;;;;;;;;;;;5.36;92.99;99971.49;2730568;87;20158;-90
2022/12/21 10:43:41;;;;;;;;;;;;;;;5.36;92.83;99965.73;2736583;86;20558;-90
2022/12/21 10:47:44;;;;;;;;;;;;;;;5.36;93.82;99956.98;2736352;86;20568;-91
2022/12/21 10:51:45;;;;;;;;;;;;;;;5.35;93.84;99956.61;2734495;86;20130;-91
2022/12/21 10:55:46;;;;;;;;;;;;;;;5.39;93.88;99954.14;2708580;87;20133;-91
2022/12/21 10:59:47;;;;;;;;;;;;;;;5.50;94.17;99956.93;2714714;86;20153;-91
2022/12/21 11:04:07;;;;;;;;;;;;;;;5.65;95.21;99956.84;2735437;86;20181;-91
2022/12/21 11:08:14;;;;;;;;;;;;;;;5.67;94.74;99950.98;2732959;86;20114;-91
2022/12/21 11:12:22;;;;;;;;;;;;;;;5.75;94.51;99963.20;2737155;86;20488;-91
2022/12/21 11:16:26;;;;;;;;;;;;;;;5.80;94.08;99958.45;2734367;86;20160;-91
2022/12/21 11:20:28;;;;;;;;;;;;;;;5.80;93.60;99950.54;2736696;86;20268;-91
2022/12/21 11:24:32;;;;;;;;;;;;;;;5.82;94.03;99948.64;2732308;86;20118;-92
2022/12/21 11:28:33;;;;;;;;;;;;;;;5.95;93.94;99930.17;2734474;87;20134;-91
2022/12/21 11:32:37;;;;;;;;;;;;;;;5.99;93.92;99932.13;2735051;87;20153;-91
2022/12/21 11:36:56;;;;;;;;;;;;;;;6.06;92.62;99928.14;2733680;87;20162;-92
2022/12/21 11:40:59;;;;;;;;;;;;;;;5.99;90.50;99933.45;2733881;86;20174;-93
2022/12/21 11:45:21;;;;;;;;;;;;;;;5.99;90.88;99938.73;2739324;85;20138;-92
2022/12/21 11:49:45;;;;;;;;;;;;;;;5.90;91.00;99936.73;2733490;86;20194;-92
2022/12/21 11:54:15;;;;;;;;;;;;;;;5.94;90.54;99933.76;2736351;86;20145;-91
2022/12/21 11:58:34;;;;;;;;;;;;;;;5.97;91.43;99936.67;2730453;87;20102;-91
2022/12/21 12:03:11;;;;;;;;;;;;;;;5.98;91.01;99937.88;2727162;86;20215;-92
2022/12/21 12:07:16;;;;;;;;;;;;;;;5.99;90.83;99932.13;2725518;86;20122;-92
2022/12/21 12:11:27;;;;;;;;;;;;;;;6.05;90.10;99925.13;2710448;86;20110;-91
2022/12/21 12:15:41;;;;;;;;;;;;;;;6.07;89.87;99910.02;2701882;87;20150;-91
2022/12/21 12:20:20;;;;;;;;;;;;;;;6.11;88.93;99912.84;2705907;87;20449;-91
2022/12/21 12:24:33;;;;;;;;;;;;;;;6.07;88.25;99919.76;2730823;86;20122;-91
2022/12/21 12:29:10;;;;;;;;;;;;;;;6.03;88.54;99913.01;2708233;86;20170;-91
2022/12/21 12:33:41;;;;;;;;;;;;;;;5.96;88.53;99915.19;2626918;88;20138;-91
2022/12/21 12:37:54;;;;;;;;;;;;;;;5.93;88.46;99913.59;2674029;87;20160;-90
2022/12/21 12:42:02;;;;;;;;;;;;;;;5.93;88.69;99908.80;2693624;86;20180;-91
2022/12/21 12:46:31;;;;;;;;;;;;;;;5.90;88.55;99909.84;2609073;91;20382;-91
2022/12/21 12:50:56;;;;;;;;;;;;;;;5.90;89.43;99907.70;2574599;90;20130;-91
2022/12/21 12:55:15;;;;;;;;;;;;;;;5.94;89.88;99911.81;2573638;91;20150;-91
2022/12/21 12:59:26;;;;;;;;;;;;;;;5.96;90.10;99909.41;2582115;91;20492;-91
2022/12/21 13:03:47;;;;;;;;;;;;;;;5.99;90.88;99907.05;2576712;91;20134;-90
2022/12/21 13:08:17;;;;;;;;;;;;;;;5.96;92.23;99906.77;2551266;92;20129;-92
2022/12/21 13:12:44;;;;;;;;;;;;;;;5.91;93.44;99900.14;2531321;92;20141;-91
2022/12/21 13:16:49;;;;;;;;;;;;;;;5.92;94.54;99903.16;2565479;91;20136;-91
2022/12/21 13:20:52;;;;;;;;;;;;;;;5.91;94.65;99904.11;2543240;90;20110;-91
2022/12/21 13:24:57;;;;;;;;;;;;;;;5.94;94.61;99905.21;2732892;86;20134;-90
2022/12/21 13:29:21;;;;;;;;;;;;;;;5.89;95.04;99903.34;2740491;85;20133;-91
2022/12/21 13:33:23;;;;;;;;;;;;;;;5.90;94.82;99899.77;2738219;86;20122;-91
2022/12/21 13:37:24;;;;;;;;;;;;;;;5.90;95.24;99910.34;2734387;85;20638;-90
2022/12/21 13:41:28;;;;;;;;;;;;;;;5.90;95.12;99907.20;2739594;85;20151;-90
2022/12/21 13:45:33;;;;;;;;;;;;;;;5.90;95.60;99907.70;2709812;86;20179;-91
2022/12/21 13:49:40;;;;;;;;;;;;;;;5.90;95.89;99905.05;2734614;86;20166;-91
2022/12/21 13:54:21;;;;;;;;;;;;;;;5.94;96.06;99908.67;2728935;86;20170;-92
2022/12/21 13:58:44;;;;;;;;;;;;;;;5.92;96.00;99919.82;2729774;86;20128;-91
2022/12/21 14:02:48;;;;;;;;;;;;;;;5.84;96.41;99913.73;2733024;86;20170;-92
2022/12/21 14:07:10;;;;;;;;;;;;;;;5.88;96.09;99909.11;2745287;85;20480;-91
2022/12/21 14:11:22;;;;;;;;;;;;;;;5.84;96.36;99911.10;2759304;86;20409;-91
2022/12/21 14:15:35;;;;;;;;;;;;;;;5.80;95.96;99908.80;2736297;86;20113;-92
2022/12/21 14:19:36;;;;;;;;;;;;;;;5.71;96.20;99902.34;2712002;87;20129;-91
2022/12/21 14:23:50;;;;;;;;;;;;;;;5.71;96.22;99906.30;2703959;87;20140;-92
2022/12/21 14:28:21;;;;;;;;;;;;;;;5.65;96.49;99913.30;2705447;87;20135;-91
2022/12/21 14:32:23;;;;;;;;;;;;;;;5.60;96.47;99914.95;2712329;87;20247;-92
2022/12/21 14:36:30;;;;;;;;;;;;;;;5.55;96.36;99906.02;2708336;86;20449;-91
2022/12/21 14:40:34;;;;;;;;;;;;;;;5.46;96.76;99900.02;2707836;86;20124;-92
2022/12/21 14:44:36;;;;;;;;;;;;;;;5.44;97.20;99904.55;2700509;87;20529;-92
2022/12/21 14:48:40;;;;;;;;;;;;;;;5.41;97.05;99900.81;2693097;87;20155;-92
2022/12/21 14:53:11;;;;;;;;;;;;;;;5.42;96.92;99898.53;2712161;87;20138;-91
2022/12/21 14:57:16;;;;;;;;;;;;;;;5.38;97.01;99902.34;2666874;87;20134;-91
2022/12/21 15:01:20;;;;;;;;;;;;;;;5.41;97.12;99903.45;2658363;88;20490;-91
2022/12/21 15:05:40;;;;;;;;;;;;;;;5.39;96.90;99895.62;2639157;89;20166;-91
2022/12/21 15:09:42;;;;;;;;;;;;;;;5.38;96.75;99899.70;2624344;89;20133;-91
2022/12/21 15:13:48;;;;;;;;;;;;;;;5.38;96.40;99893.10;2613156;89;20897;-91
2022/12/21 15:17:49;;;;;;;;;;;;;;;5.41;96.49;99898.17;2607650;89;20181;-91
2022/12/21 15:22:14;;;;;;;;;;;;;;;5.40;95.92;99896.48;2539738;90;20186;-91
2022/12/21 15:26:24;;;;;;;;;;;;;;;5.50;95.55;99892.30;2616605;89;20170;-92
2022/12/21 15:30:35;;;;;;;;;;;;;;;5.55;95.46;99886.23;2617329;89;20222;-92
2022/12/21 15:34:38;;;;;;;;;;;;;;;5.53;95.99;99892.08;2662435;88;20465;-92
2022/12/21 15:38:45;;;;;;;;;;;;;;;5.55;95.95;99888.86;2667535;87;20110;-91
2022/12/21 15:42:52;;;;;;;;;;;;;;;5.57;95.31;99885.64;2609114;88;20126;-92
2022/12/21 15:46:56;;;;;;;;;;;;;;;5.70;95.49;99879.05;2598793;90;20429;-92
2022/12/21 15:51:00;;;;;;;;;;;;;;;5.79;95.04;99879.36;2626227;88;20183;-93
2022/12/21 15:55:07;;;;;;;;;;;;;;;5.83;94.70;99877.73;2663328;87;20549;-92
2022/12/21 15:59:11;;;;;;;;;;;;;;;5.80;94.13;99870.03;2665916;87;20117;-91
2022/12/21 16:03:14;;;;;;;;;;;;;;;5.78;94.46;99865.80;2659222;87;20154;-91
2022/12/21 16:07:16;;;;;;;;;;;;;;;5.82;94.29;99873.41;2679430;86;20124;-91
2022/12/21 16:11:26;;;;;;;;;;;;;;;5.83;94.36;99875.09;2693879;86;20499;-92
2022/12/21 16:15:44;;;;;;;;;;;;;;;5.86;94.38;99872.24;2695972;86;20175;-91
2022/12/21 16:19:54;;;;;;;;;;;;;;;5.90;94.49;99874.70;2698776;86;20160;-91
2022/12/21 16:23:55;;;;;;;;;;;;;;;5.90;94.61;99866.78;2696551;86;20168;-93
2022/12/21 16:27:56;;;;;;;;;;;;;;;5.84;94.25;99864.91;2672026;87;20467;-90
2022/12/21 16:31:58;;;;;;;;;;;;;;;5.90;94.29;99864.97;2649805;87;20155;-90
2022/12/21 16:35:59;;;;;;;;;;;;;;;5.90;94.57;99867.61;2677685;86;20148;-90
2022/12/21 16:40:06;;;;;;;;;;;;;;;5.91;94.21;99863.19;2691483;86;20133;-90
2022/12/21 16:44:17;;;;;;;;;;;;;;;5.89;94.33;99861.95;2698907;86;20112;-90
2022/12/21 16:48:23;;;;;;;;;;;;;;;5.93;94.49;99868.70;2693793;86;20128;-92
2022/12/21 16:52:45;;;;;;;;;;;;;;;5.90;94.29;99877.34;2698002;86;20128;-91
2022/12/21 16:56:53;;;;;;;;;;;;;;;5.92;94.37;99869.66;2697078;86;20144;-92
2022/12/21 17:00:54;;;;;;;;;;;;;;;5.92;94.44;99867.52;2697981;86;20464;-91
2022/12/21 17:04:57;;;;;;;;;;;;;;;5.96;94.43;99880.38;2701657;86;20159;-91
2022/12/21 17:08:59;;;;;;;;;;;;;;;6.02;94.73;99887.55;2708210;86;20411;-93
2022/12/21 17:13:04;;;;;;;;;;;;;;;6.11;94.59;99889.08;2711876;86;20115;-90
2022/12/21 17:17:17;;;;;;;;;;;;;;;6.13;93.99;99895.09;2681637;87;20159;-91
2022/12/21 17:21:22;;;;;;;;;;;;;;;6.13;94.50;99891.14;2707013;86;20131;-92
2022/12/21 17:25:24;;;;;;;;;;;;;;;6.16;94.03;99883.95;2707017;86;20218;-91
2022/12/21 17:29:25;;;;;;;;;;;;;;;6.14;94.84;99882.26;2680352;87;20235;-90
2022/12/21 17:33:30;;;;;;;;;;;;;;;6.13;94.38;99871.33;2708672;86;20107;-89
2022/12/21 17:37:31;;;;;;;;;;;;;;;6.13;95.08;99873.11;2693698;87;20155;-91
2022/12/21 17:41:32;;;;;;;;;;;;;;;6.16;95.04;99872.06;2673264;86;20119;-91
2022/12/21 17:45:34;;;;;;;;;;;;;;;6.19;94.97;99874.48;2707534;86;20151;-90
2022/12/21 17:49:35;;;;;;;;;;;;;;;6.25;94.93;99878.00;2697700;86;20426;-91
2022/12/21 17:53:36;;;;;;;;;;;;;;;6.27;94.54;99877.41;2706078;86;20158;-91
2022/12/21 17:57:37;;;;;;;;;;;;;;;6.27;94.29;99878.73;2706040;86;20104;-91
2022/12/21 18:01:38;;;;;;;;;;;;;;;6.28;94.09;99881.75;2709316;86;20169;-93
2022/12/21 18:05:39;;;;;;;;;;;;;;;6.33;94.27;99882.75;2705658;86;20162;-89
2022/12/21 18:09:40;;;;;;;;;;;;;;;6.29;94.16;99878.18;2708416;86;20139;-92
2022/12/21 18:13:41;;;;;;;;;;;;;;;6.32;93.73;99874.00;2715125;86;20112;-92
2022/12/21 18:18:00;;;;;;;;;;;;;;;6.40;93.57;99883.53;2708759;86;20123;-92
2022/12/21 18:22:01;;;;;;;;;;;;;;;6.35;94.00;99873.77;2704523;86;20112;-91
2022/12/21 18:26:03;;;;;;;;;;;;;;;6.30;94.71;99875.91;2710446;86;20433;-90
2022/12/21 18:30:05;;;;;;;;;;;;;;;6.26;94.31;99881.02;2706217;86;20136;-90
2022/12/21 18:34:08;;;;;;;;;;;;;;;6.24;94.25;99869.25;2708112;86;20106;-90
2022/12/21 18:38:28;;;;;;;;;;;;;;;6.23;93.98;99860.10;2676226;86;20530;-94
2022/12/21 18:42:29;;;;;;;;;;;;;;;6.24;94.42;99856.51;2685201;86;20159;-92
2022/12/21 18:46:37;;;;;;;;;;;;;;;6.22;95.00;99854.45;2676446;86;20162;-93
2022/12/21 18:50:39;;;;;;;;;;;;;;;6.12;96.08;99843.23;2705441;86;20143;-95
2022/12/21 18:54:41;;;;;;;;;;;;;;;6.19;95.96;99839.69;2711234;86;20151;-93
2022/12/21 18:58:42;;;;;;;;;;;;;;;6.17;95.97;99843.38;2711071;86;20416;-93
2022/12/21 19:02:51;;;;;;;;;;;;;;;6.24;95.92;99848.58;2705696;86;20426;-94
2022/12/21 19:06:53;;;;;;;;;;;;;;;6.33;96.10;99855.87;2706141;86;20136;-94
2022/12/21 19:10:54;;;;;;;;;;;;;;;6.40;95.51;99858.43;2696864;86;20124;-94
2022/12/21 19:14:56;;;;;;;;;;;;;;;6.45;94.74;99853.29;2667443;86;20145;-92
2022/12/21 19:18:57;;;;;;;;;;;;;;;6.40;94.76;99851.83;2661059;88;20112;-92
2022/12/21 19:22:59;;;;;;;;;;;;;;;6.36;94.72;99867.53;2682371;87;20410;-92
2022/12/21 19:27:02;;;;;;;;;;;;;;;6.27;95.10;99862.42;2687131;86;20517;-92
2022/12/21 19:31:03;;;;;;;;;;;;;;;6.27;94.73;99851.86;2671149;86;20161;-92
2022/12/21 19:35:04;;;;;;;;;;;;;;;6.19;95.29;99838.37;2675465;86;20093;-92
2022/12/21 19:39:09;;;;;;;;;;;;;;;6.19;96.05;99841.01;2694278;86;20108;-91
2022/12/21 19:43:13;;;;;;;;;;;;;;;6.20;96.69;99843.16;2700098;86;20516;-91
2022/12/21 19:47:25;;;;;;;;;;;;;;;6.17;97.39;99835.45;2693069;86;20179;-92
2022/12/21 19:51:25;;;;;;;;;;;;;;;6.18;97.39;99846.38;2694184;86;20133;-92
2022/12/21 19:55:27;;;;;;;;;;;;;;;6.12;97.92;99837.95;2701439;86;20442;-91
2022/12/21 19:59:28;;;;;;;;;;;;;;;6.19;97.38;99837.05;2698419;86;20231;-92
2022/12/21 20:03:30;;;;;;;;;;;;;;;6.06;97.57;99827.80;2696854;85;20112;-91
2022/12/21 20:07:31;;;;;;;;;;;;;;;6.14;97.37;99829.90;2693587;86;20386;-92
2022/12/21 20:11:33;;;;;;;;;;;;;;;6.10;96.96;99841.64;2645103;87;20475;-91
2022/12/21 20:15:36;;;;;;;;;;;;;;;6.11;96.71;99856.07;2671450;87;20122;-93
2022/12/21 20:19:37;;;;;;;;;;;;;;;6.19;97.45;99849.39;2696105;87;20106;-93
2022/12/21 20:23:38;;;;;;;;;;;;;;;6.24;97.66;99850.77;2669668;87;20448;-91
2022/12/21 20:27:39;;;;;;;;;;;;;;;6.29;98.00;99850.45;2686558;87;20130;-91
2022/12/21 20:31:44;;;;;;;;;;;;;;;6.34;97.76;99852.27;2693473;87;20280;-92
2022/12/21 20:35:45;;;;;;;;;;;;;;;6.36;97.34;99848.19;2697953;87;20138;-91
2022/12/21 20:39:46;;;;;;;;;;;;;;;6.37;96.99;99847.23;2678314;87;20149;-91
2022/12/21 20:43:52;;;;;;;;;;;;;;;6.41;96.75;99844.27;2637456;88;20182;-92
2022/12/21 20:47:53;;;;;;;;;;;;;;;6.47;96.16;99847.41;2662742;88;20165;-91
2022/12/21 20:51:54;;;;;;;;;;;;;;;6.49;95.76;99842.40;2668622;87;20145;-91
2022/12/21 21:00:17;;;;;;;;;;;;;;;6.40;95.32;99843.91;2673640;87;20182;-92
2022/12/21 21:04:18;;;;;;;;;;;;;;;6.29;95.01;99843.84;2664324;87;20118;-92
2022/12/21 21:08:19;;;;;;;;;;;;;;;6.13;95.60;99844.92;2665505;87;20148;-93
2022/12/21 21:12:21;;;;;;;;;;;;;;;6.06;95.94;99839.68;2681839;87;20515;-93
2022/12/21 21:16:26;;;;;;;;;;;;;;;5.99;95.87;99835.77;2663978;88;20129;-91
2022/12/21 21:24:53;;;;;;;;;;;;;;;5.90;95.25;99826.69;2686375;88;20132;-92
2022/12/21 21:28:54;;;;;;;;;;;;;;;5.79;95.45;99815.56;2691783;88;20159;-92
2022/12/21 21:32:56;;;;;;;;;;;;;;;5.65;95.74;99824.90;2643199;88;20840;-92
2022/12/21 21:36:58;;;;;;;;;;;;;;;5.54;96.52;99824.31;2686932;88;20160;-91
2022/12/21 21:45:19;;;;;;;;;;;;;;;5.43;97.78;99825.05;2689878;87;20132;-92
2022/12/21 21:49:23;;;;;;;;;;;;;;;5.41;97.42;99830.45;2620603;87;20169;-92
2022/12/21 21:53:25;;;;;;;;;;;;;;;5.33;98.12;99828.78;2687606;88;20132;-92
2022/12/21 21:57:28;;;;;;;;;;;;;;;5.26;99.11;99827.02;2629647;88;20434;-93